Time;durP1;ratioP1;P1;durP2;ratioP2;P2;SDS_P1;SDS_P2;PMS_P1;PMS_P2;Temp;Humidity;BMP_temperature;BMP_pressure;BME280_temperature;BME280_humidity;BME280_pressure;Samples;Min_cycle;Max_cycle;Signal;HPM_P1;HPM_P2
2022/11/25 00:01:39;;;;;;;2.75;1.77;;;;;;;;;;5090258;28;20199;-39
2022/11/25 00:04:04;;;;;;;3.13;1.95;;;;;;;;;;5090649;28;20024;-39
2022/11/25 00:06:34;;;;;;;2.30;1.50;;;;;;;;;;5090581;28;20407;-39
2022/11/25 00:09:04;;;;;;;3.03;1.63;;;;;;;;;;5095536;28;20027;-39
2022/11/25 00:11:31;;;;;;;2.20;1.58;;;;;;;;;;5110836;28;20035;-39
2022/11/25 00:13:57;;;;;;;3.60;1.20;;;;;;;;;;5110754;28;20016;-39
2022/11/25 00:16:25;;;;;;;3.35;1.52;;;;;;;;;;5110448;28;20027;-39
2022/11/25 00:18:51;;;;;;;4.93;1.90;;;;;;;;;;5110787;28;20022;-39
2022/11/25 00:21:19;;;;;;;2.45;1.60;;;;;;;;;;5109150;28;20055;-39
2022/11/25 00:23:45;;;;;;;3.35;1.65;;;;;;;;;;5091622;28;20040;-39
2022/11/25 00:26:14;;;;;;;4.57;1.63;;;;;;;;;;5090585;28;20089;-39
2022/11/25 00:28:42;;;;;;;4.30;1.70;;;;;;;;;;5090316;28;20103;-39
2022/11/25 00:31:12;;;;;;;3.13;1.85;;;;;;;;;;5090147;28;20089;-39
2022/11/25 00:33:38;;;;;;;2.50;1.50;;;;;;;;;;5090019;28;20394;-39
2022/11/25 00:36:05;;;;;;;2.53;1.40;;;;;;;;;;5089561;28;20024;-39
2022/11/25 00:38:31;;;;;;;2.80;1.55;;;;;;;;;;5089891;28;20055;-39
2022/11/25 00:46:26;;;;;;;;;;;;;;;;;;5110942;28;20501;-39
2022/11/25 00:48:52;;;;;;;4.35;1.60;;;;;;;;;;5110282;28;20003;-39
2022/11/25 00:51:18;;;;;;;2.58;1.20;;;;;;;;;;5110126;28;20024;-39
2022/11/25 00:53:44;;;;;;;2.13;1.38;;;;;;;;;;5110695;28;20032;-39
2022/11/25 00:56:13;;;;;;;1.63;1.20;;;;;;;;;;5110125;28;20072;-39
2022/11/25 00:58:39;;;;;;;2.80;0.82;;;;;;;;;;5108619;28;20084;-39
2022/11/25 01:01:06;;;;;;;2.20;1.10;;;;;;;;;;5110021;28;20053;-39
2022/11/25 01:03:32;;;;;;;1.05;0.95;;;;;;;;;;5110106;28;20106;-39
2022/11/25 06:10:48;;;;;;;3.28;1.73;;;;;;;;;;5081137;28;20101;-39
2022/11/25 06:13:14;;;;;;;2.53;1.40;;;;;;;;;;5111844;28;20059;-39
2022/11/25 06:15:41;;;;;;;3.80;1.73;;;;;;;;;;5084148;28;20067;-39
2022/11/25 06:18:08;;;;;;;3.25;1.52;;;;;;;;;;5077758;28;20016;-39
2022/11/25 06:20:34;;;;;;;4.30;2.13;;;;;;;;;;5090836;28;20097;-39
2022/11/25 06:23:00;;;;;;;6.18;2.13;;;;;;;;;;5092648;28;20471;-39
2022/11/25 06:25:26;;;;;;;4.43;2.15;;;;;;;;;;5092878;28;20031;-39
2022/11/25 06:27:52;;;;;;;4.63;2.35;;;;;;;;;;5083724;28;20024;-39
2022/11/25 06:30:18;;;;;;;3.22;2.08;;;;;;;;;;5093775;28;20038;-39
2022/11/25 06:32:44;;;;;;;4.80;2.20;;;;;;;;;;5092688;28;20026;-39
2022/11/25 06:35:10;;;;;;;3.35;2.08;;;;;;;;;;5093732;28;20028;-39
2022/11/25 06:37:36;;;;;;;4.15;2.25;;;;;;;;;;5093436;28;20448;-39
2022/11/25 06:40:03;;;;;;;4.32;1.90;;;;;;;;;;5093999;28;20107;-39
2022/11/25 06:42:29;;;;;;;3.97;1.80;;;;;;;;;;5076428;28;20160;-39
2022/11/25 06:44:55;;;;;;;3.28;1.65;;;;;;;;;;5091293;28;20048;-39
2022/11/25 06:47:21;;;;;;;1.80;1.35;;;;;;;;;;5093362;28;20020;-39
2022/11/25 06:49:47;;;;;;;2.92;1.60;;;;;;;;;;5093618;28;20618;-39
2022/11/25 06:52:13;;;;;;;2.38;1.58;;;;;;;;;;5103987;28;20023;-39
2022/11/25 06:54:40;;;;;;;3.92;1.88;;;;;;;;;;5104497;28;20555;-39
2022/11/25 06:57:10;;;;;;;4.28;2.05;;;;;;;;;;5089827;28;20098;-39
2022/11/25 06:59:36;;;;;;;3.85;2.10;;;;;;;;;;5113794;28;20502;-39
2022/11/25 07:02:02;;;;;;;3.53;1.98;;;;;;;;;;5106526;28;20024;-40
2022/11/25 07:04:29;;;;;;;3.38;1.90;;;;;;;;;;5093431;28;20035;-39
2022/11/25 07:06:55;;;;;;;4.32;2.40;;;;;;;;;;5093375;28;20073;-39
2022/11/25 07:09:21;;;;;;;3.33;1.98;;;;;;;;;;5093738;28;20080;-39
2022/11/25 07:11:47;;;;;;;3.33;1.92;;;;;;;;;;5093150;28;20020;-39
2022/11/25 07:14:14;;;;;;;4.07;2.15;;;;;;;;;;5088563;28;20035;-39
2022/11/25 07:16:41;;;;;;;4.68;2.47;;;;;;;;;;5092711;28;20114;-39
2022/11/25 07:19:07;;;;;;;4.53;2.75;;;;;;;;;;5097462;28;20031;-39
2022/11/25 07:21:35;;;;;;;3.53;2.28;;;;;;;;;;5110990;28;20076;-39
2022/11/25 07:24:02;;;;;;;3.90;2.05;;;;;;;;;;5112736;28;20019;-39
2022/11/25 07:26:30;;;;;;;4.97;2.53;;;;;;;;;;5111582;28;20390;-39
2022/11/25 07:28:58;;;;;;;6.55;2.70;;;;;;;;;;5112304;28;20084;-39
2022/11/25 07:31:31;;;;;;;5.00;2.38;;;;;;;;;;5112951;28;20015;-39
2022/11/25 07:34:01;;;;;;;4.30;2.53;;;;;;;;;;5112473;28;20024;-39
2022/11/25 07:36:28;;;;;;;6.05;2.78;;;;;;;;;;5112478;28;20019;-39
2022/11/25 07:38:54;;;;;;;4.28;2.55;;;;;;;;;;5112642;28;20032;-39
2022/11/25 07:41:21;;;;;;;5.22;2.90;;;;;;;;;;5112503;28;20089;-39
2022/11/25 07:43:48;;;;;;;5.32;2.92;;;;;;;;;;5112308;28;20490;-39
2022/11/25 07:46:16;;;;;;;4.70;2.50;;;;;;;;;;5112234;28;20026;-39
2022/11/25 07:48:42;;;;;;;3.80;2.30;;;;;;;;;;5112257;28;20506;-39
2022/11/25 07:51:15;;;;;;;6.45;3.17;;;;;;;;;;5112127;28;20024;-39
2022/11/25 07:53:42;;;;;;;5.43;3.10;;;;;;;;;;5111902;28;20421;-40
2022/11/25 07:56:08;;;;;;;5.28;2.67;;;;;;;;;;5112025;28;20082;-39
2022/11/25 07:58:34;;;;;;;5.70;2.88;;;;;;;;;;5112067;28;20024;-39
2022/11/25 08:01:06;;;;;;;6.38;3.30;;;;;;;;;;5112053;28;20063;-39
2022/11/25 08:03:33;;;;;;;5.68;3.47;;;;;;;;;;5112037;28;20063;-40
2022/11/25 08:06:00;;;;;;;7.82;3.53;;;;;;;;;;5111885;28;20055;-39
2022/11/25 08:08:26;;;;;;;6.13;3.10;;;;;;;;;;5111932;28;20521;-39
2022/11/25 08:10:52;;;;;;;5.07;3.17;;;;;;;;;;5110400;28;20031;-39
2022/11/25 08:13:18;;;;;;;5.72;3.35;;;;;;;;;;5110266;28;20035;-39
2022/11/25 08:15:44;;;;;;;4.40;2.88;;;;;;;;;;5084970;28;20403;-39
2022/11/25 08:18:10;;;;;;;5.50;3.17;;;;;;;;;;5089599;28;20399;-39
2022/11/25 08:20:36;;;;;;;7.05;3.72;;;;;;;;;;5089417;28;20132;-39
2022/11/25 08:23:02;;;;;;;7.47;3.55;;;;;;;;;;5090127;28;20070;-40
2022/11/25 08:25:30;;;;;;;7.20;3.00;;;;;;;;;;5089961;28;20047;-39
2022/11/25 08:27:58;;;;;;;4.40;2.45;;;;;;;;;;5089219;28;20024;-39
2022/11/25 08:30:24;;;;;;;3.15;2.28;;;;;;;;;;5089354;28;20038;-39
2022/11/25 08:32:51;;;;;;;4.43;2.35;;;;;;;;;;5089256;28;20426;-39
2022/11/25 08:35:17;;;;;;;6.30;2.33;;;;;;;;;;5089174;28;20505;-39
2022/11/25 08:37:43;;;;;;;3.53;2.30;;;;;;;;;;5089022;28;20457;-39
2022/11/25 08:40:09;;;;;;;4.40;2.10;;;;;;;;;;5089191;28;20465;-39
2022/11/25 08:42:35;;;;;;;3.03;2.00;;;;;;;;;;5089088;28;20024;-39
2022/11/25 08:45:01;;;;;;;4.03;2.08;;;;;;;;;;5089970;28;20016;-39
2022/11/25 08:47:27;;;;;;;3.95;2.30;;;;;;;;;;5089390;28;20471;-39
2022/11/25 08:49:54;;;;;;;4.22;1.90;;;;;;;;;;5089016;28;20081;-40
2022/11/25 08:52:20;;;;;;;3.45;2.00;;;;;;;;;;5089035;28;20099;-39
2022/11/25 08:54:46;;;;;;;3.22;1.77;;;;;;;;;;5088926;28;20107;-39
2022/11/25 08:57:13;;;;;;;3.63;2.10;;;;;;;;;;5089124;28;20070;-40
2022/11/25 08:59:39;;;;;;;3.60;1.70;;;;;;;;;;5088928;28;20035;-39
2022/11/25 09:02:05;;;;;;;3.72;2.00;;;;;;;;;;5089522;28;20103;-39
2022/11/25 09:04:32;;;;;;;4.28;2.22;;;;;;;;;;5089405;28;20119;-39
2022/11/25 09:06:58;;;;;;;3.33;2.00;;;;;;;;;;5088884;28;20021;-39
2022/11/25 09:09:24;;;;;;;3.08;1.70;;;;;;;;;;5088754;28;20035;-39
2022/11/25 09:11:50;;;;;;;4.18;1.70;;;;;;;;;;5088408;28;20051;-40
2022/11/25 09:14:16;;;;;;;2.75;1.52;;;;;;;;;;5088378;28;20032;-39
2022/11/25 09:16:42;;;;;;;2.78;1.65;;;;;;;;;;5088408;28;20039;-39
2022/11/25 09:19:08;;;;;;;3.08;1.67;;;;;;;;;;5088396;28;20219;-39
2022/11/25 09:21:34;;;;;;;3.40;2.25;;;;;;;;;;5089008;28;20115;-40
2022/11/25 09:24:01;;;;;;;2.88;1.88;;;;;;;;;;5088203;28;20122;-39
2022/11/25 09:26:28;;;;;;;3.50;1.73;;;;;;;;;;5088387;28;20034;-39
2022/11/25 09:28:54;;;;;;;2.88;1.67;;;;;;;;;;5088353;28;20081;-40
2022/11/25 09:31:21;;;;;;;2.65;1.63;;;;;;;;;;5088214;28;20038;-40
2022/11/25 09:33:47;;;;;;;2.67;1.67;;;;;;;;;;5088308;28;20085;-40
2022/11/25 09:36:14;;;;;;;3.83;2.03;;;;;;;;;;5088560;28;20483;-40
2022/11/25 09:38:43;;;;;;;2.95;1.80;;;;;;;;;;5088662;28;20023;-39
2022/11/25 09:41:09;;;;;;;3.63;1.80;;;;;;;;;;5088525;28;20029;-39
2022/11/25 09:46:41;;;;;;;3.20;1.80;;;;;;;;;;5088245;28;20403;-40
2022/11/25 09:49:13;;;;;;;2.92;1.73;;;;;;;;;;5089483;28;20029;-40
2022/11/25 09:51:51;;;;;;;2.75;1.63;;;;;;;;;;5092458;28;20108;-39
2022/11/25 09:54:20;;;;;;;3.00;2.00;;;;;;;;;;5092277;28;20024;-39
2022/11/25 09:56:55;;;;;;;3.38;2.10;;;;;;;;;;5092369;28;20020;-40
2022/11/25 09:59:34;;;;;;;2.80;1.60;;;;;;;;;;5092282;28;20520;-39
2022/11/25 10:02:19;;;;;;;3.08;1.73;;;;;;;;;;5092276;28;20028;-40
2022/11/25 10:04:48;;;;;;;2.80;1.50;;;;;;;;;;5074247;28;20078;-40
2022/11/25 10:07:19;;;;;;;2.75;1.77;;;;;;;;;;5092144;28;20119;-39
2022/11/25 10:09:45;;;;;;;2.28;1.50;;;;;;;;;;5108877;28;20019;-40
2022/11/25 10:12:17;;;;;;;3.38;1.40;;;;;;;;;;5112839;28;20122;-40
2022/11/25 10:14:46;;;;;;;2.15;1.50;;;;;;;;;;5095299;28;20073;-39
2022/11/25 10:17:27;;;;;;;3.40;1.60;;;;;;;;;;5092591;28;20029;-39
2022/11/25 10:19:59;;;;;;;2.67;1.70;;;;;;;;;;5091907;28;20091;-39
2022/11/25 10:22:27;;;;;;;2.22;1.52;;;;;;;;;;5091817;28;20051;-40
2022/11/25 10:25:28;;;;;;;3.38;1.60;;;;;;;;;;5091794;28;20039;-40
2022/11/25 10:28:00;;;;;;;3.15;1.73;;;;;;;;;;5009300;28;20112;-39
2022/11/25 10:30:47;;;;;;;3.58;1.85;;;;;;;;;;5078440;28;20511;-40
2022/11/25 10:33:17;;;;;;;4.35;2.00;;;;;;;;;;5092121;28;20031;-39
2022/11/25 10:35:47;;;;;;;3.13;1.70;;;;;;;;;;5092231;28;20487;-40
2022/11/25 10:38:18;;;;;;;3.25;1.60;;;;;;;;;;5092132;28;20028;-40
2022/11/25 10:40:49;;;;;;;3.17;1.80;;;;;;;;;;5092406;28;20016;-39
2022/11/25 10:43:15;;;;;;;2.67;1.70;;;;;;;;;;5091988;28;20051;-39
2022/11/25 10:45:56;;;;;;;2.55;1.60;;;;;;;;;;5091398;28;20024;-40
2022/11/25 10:48:25;;;;;;;4.13;2.05;;;;;;;;;;5091475;28;20112;-40
2022/11/25 10:51:06;;;;;;;3.40;1.80;;;;;;;;;;5091209;28;20606;-40
2022/11/25 10:53:32;;;;;;;4.80;2.08;;;;;;;;;;5091392;28;20024;-40
2022/11/25 10:56:09;;;;;;;2.65;1.55;;;;;;;;;;5091316;28;20383;-40
2022/11/25 10:58:37;;;;;;;3.33;1.73;;;;;;;;;;5072937;28;20107;-40
2022/11/25 11:01:16;;;;;;;4.00;1.83;;;;;;;;;;5091027;28;20020;-39
2022/11/25 11:03:44;;;;;;;2.72;1.67;;;;;;;;;;5091063;28;20032;-40
2022/11/25 11:06:31;;;;;;;4.25;1.98;;;;;;;;;;5091137;28;20416;-40
2022/11/25 11:08:57;;;;;;;2.83;1.70;;;;;;;;;;5091036;28;20097;-39
2022/11/25 11:11:23;;;;;;;2.97;1.70;;;;;;;;;;5090819;28;20016;-39
2022/11/25 11:13:56;;;;;;;3.97;2.03;;;;;;;;;;5090692;28;20471;-40
2022/11/25 11:16:35;;;;;;;3.70;2.10;;;;;;;;;;5090824;28;20051;-39
2022/11/25 11:19:01;;;;;;;3.70;2.20;;;;;;;;;;5090798;28;20023;-40
2022/11/25 11:21:35;;;;;;;4.05;2.42;;;;;;;;;;5090735;28;20055;-39
2022/11/25 11:24:01;;;;;;;3.70;2.40;;;;;;;;;;5090460;28;20024;-40
2022/11/25 11:26:30;;;;;;;3.75;2.30;;;;;;;;;;5090647;28;20024;-40
2022/11/25 11:28:57;;;;;;;3.53;2.10;;;;;;;;;;5090620;28;20028;-39
2022/11/25 11:31:26;;;;;;;3.55;2.13;;;;;;;;;;5090595;28;20446;-40
2022/11/25 11:33:59;;;;;;;4.32;2.33;;;;;;;;;;5090396;28;20445;-39
2022/11/25 11:36:40;;;;;;;3.60;1.88;;;;;;;;;;5090183;28;20495;-40
2022/11/25 11:39:06;;;;;;;3.28;2.08;;;;;;;;;;5090449;28;20024;-39
2022/11/25 11:41:35;;;;;;;3.65;1.98;;;;;;;;;;5090324;28;20020;-40
2022/11/25 11:44:11;;;;;;;2.83;1.55;;;;;;;;;;5090208;28;20498;-40
2022/11/25 11:46:56;;;;;;;3.83;1.75;;;;;;;;;;5090314;28;20074;-39
2022/11/25 11:49:22;;;;;;;;;;;;;;;;;;5090810;28;20031;-39
2022/11/25 11:51:54;;;;;;;3.50;1.60;;;;;;;;;;5090712;28;19904;-39
2022/11/25 11:54:29;;;;;;;2.10;1.42;;;;;;;;;;5090667;28;20415;-40
2022/11/25 11:57:06;;;;;;;2.65;1.65;;;;;;;;;;5090102;28;20024;-39
2022/11/25 11:59:39;;;;;;;3.63;1.65;;;;;;;;;;5089900;28;20016;-39
2022/11/25 12:02:21;;;;;;;3.55;1.50;;;;;;;;;;5089936;28;20061;-40
2022/11/25 12:05:13;;;;;;;1.92;1.42;;;;;;;;;;5090544;28;20499;-40
2022/11/25 12:07:58;;;;;;;2.67;1.70;;;;;;;;;;5107468;28;20031;-40
2022/11/25 12:10:27;;;;;;;2.50;1.58;;;;;;;;;;5110667;28;20031;-39
2022/11/25 12:13:12;;;;;;;3.95;1.88;;;;;;;;;;5089037;28;20057;-40
2022/11/25 12:15:47;;;;;;;3.00;1.60;;;;;;;;;;5089780;28;20103;-39
2022/11/25 12:18:18;;;;;;;2.28;1.55;;;;;;;;;;5089620;28;20036;-39
2022/11/25 12:20:52;;;;;;;1.90;1.30;;;;;;;;;;5089587;28;20021;-39
2022/11/25 12:23:23;;;;;;;3.20;1.73;;;;;;;;;;5090033;28;20031;-40
2022/11/25 12:25:54;;;;;;;3.40;1.77;;;;;;;;;;5089519;28;20028;-40
2022/11/25 12:28:29;;;;;;;3.22;1.92;;;;;;;;;;5089538;28;20100;-40
2022/11/25 12:31:01;;;;;;;3.85;2.00;;;;;;;;;;5089606;28;20169;-39
2022/11/25 12:33:34;;;;;;;2.72;1.70;;;;;;;;;;5090050;28;20035;-40
2022/11/25 12:36:18;;;;;;;3.00;2.00;;;;;;;;;;5089971;28;20020;-40
2022/11/25 12:39:02;;;;;;;3.27;2.10;;;;;;;;;;5089268;28;20458;-39
2022/11/25 12:41:41;;;;;;;2.80;1.88;;;;;;;;;;5090054;28;20609;-40
2022/11/25 12:44:33;;;;;;;3.67;1.90;;;;;;;;;;5089169;28;20028;-40
2022/11/25 12:47:00;;;;;;;2.85;1.90;;;;;;;;;;5086938;28;20040;-40
2022/11/25 12:49:27;;;;;;;2.75;1.92;;;;;;;;;;5089540;28;20016;-40
2022/11/25 12:52:12;;;;;;;2.92;1.50;;;;;;;;;;5089097;28;20028;-40
2022/11/25 12:55:02;;;;;;;2.53;1.55;;;;;;;;;;5089045;28;20024;-40
2022/11/25 12:57:41;;;;;;;2.35;1.50;;;;;;;;;;5089572;28;20047;-40
2022/11/25 13:00:10;;;;;;;2.10;1.40;;;;;;;;;;5089053;28;20024;-40
2022/11/25 13:02:55;;;;;;;2.17;1.40;;;;;;;;;;5088995;28;20479;-40
2022/11/25 13:05:39;;;;;;;3.47;1.50;;;;;;;;;;5089024;28;20106;-39
2022/11/25 13:08:05;;;;;;;;;;;;;;;;;;5089245;28;20122;-40
2022/11/25 13:10:31;;;;;;;5.63;1.95;;;;;;;;;;5089440;28;19998;-39
2022/11/25 13:13:21;;;;;;;2.45;1.20;;;;;;;;;;5088832;28;20028;-40
2022/11/25 13:15:50;;;;;;;3.80;1.65;;;;;;;;;;5088806;28;20027;-40
2022/11/25 13:18:17;;;;;;;2.38;1.40;;;;;;;;;;5088800;28;20024;-40
2022/11/25 13:20:44;;;;;;;2.35;1.40;;;;;;;;;;5088553;28;20391;-40
2022/11/25 13:23:13;;;;;;;2.80;1.80;;;;;;;;;;5088865;28;20119;-40
2022/11/25 13:25:40;;;;;;;2.30;1.52;;;;;;;;;;5091920;28;20044;-40
2022/11/25 13:28:26;;;;;;;2.90;1.48;;;;;;;;;;5092910;28;20029;-39
2022/11/25 13:30:52;;;;;;;4.75;1.77;;;;;;;;;;5092766;28;20058;-39
2022/11/25 13:33:18;;;;;;;2.75;1.40;;;;;;;;;;5092656;28;20512;-40
2022/11/25 13:35:45;;;;;;;2.85;1.52;;;;;;;;;;5092828;28;20059;-40
2022/11/25 13:38:29;;;;;;;2.33;1.58;;;;;;;;;;5093001;28;20469;-40
2022/11/25 13:41:21;;;;;;;2.30;1.42;;;;;;;;;;5092683;28;20020;-40
2022/11/25 13:43:52;;;;;;;4.32;2.03;;;;;;;;;;5092513;28;20065;-40
2022/11/25 13:46:37;;;;;;;3.47;1.95;;;;;;;;;;5092507;28;20060;-40
2022/11/25 13:49:04;;;;;;;3.63;2.03;;;;;;;;;;5093175;28;20069;-40
2022/11/25 13:51:30;;;;;;;2.60;1.63;;;;;;;;;;5093107;28;20028;-40
2022/11/25 13:54:06;;;;;;;2.80;1.65;;;;;;;;;;5092297;28;20024;-40
2022/11/25 13:56:33;;;;;;;3.30;1.70;;;;;;;;;;5093058;28;20024;-40
2022/11/25 13:59:15;;;;;;;7.45;4.05;;;;;;;;;;5092686;28;20024;-40
2022/11/25 14:01:41;;;;;;;10.93;6.40;;;;;;;;;;5092346;28;20380;-40
2022/11/25 14:04:09;;;;;;;10.90;6.18;;;;;;;;;;5092187;28;20028;-40
2022/11/25 14:06:34;;;;;;;10.88;6.13;;;;;;;;;;5092782;28;20187;-40
2022/11/25 14:09:05;;;;;;;11.00;6.45;;;;;;;;;;5092699;28;20523;-40
2022/11/25 14:11:34;;;;;;;8.27;4.97;;;;;;;;;;5102110;28;20076;-40
2022/11/25 14:14:23;;;;;;;7.07;4.43;;;;;;;;;;5112806;28;20520;-40
2022/11/25 14:17:05;;;;;;;8.20;4.38;;;;;;;;;;5064921;28;20039;-39
2022/11/25 14:19:38;;;;;;;8.57;4.32;;;;;;;;;;5112941;28;20523;-40
2022/11/25 14:22:19;;;;;;;6.00;3.53;;;;;;;;;;5112911;28;20027;-40
2022/11/25 14:24:51;;;;;;;7.10;3.63;;;;;;;;;;5112301;28;20056;-40
2022/11/25 14:27:20;;;;;;;5.05;3.10;;;;;;;;;;5112137;28;20402;-40
2022/11/25 14:29:50;;;;;;;4.95;2.80;;;;;;;;;;5112095;28;20383;-40
2022/11/25 14:32:21;;;;;;;5.07;2.78;;;;;;;;;;5112183;28;20032;-40
2022/11/25 14:34:54;;;;;;;3.17;2.20;;;;;;;;;;5111589;28;20114;-40
2022/11/25 14:37:25;;;;;;;4.40;2.47;;;;;;;;;;5112032;28;20034;-40
2022/11/25 14:39:57;;;;;;;3.17;1.92;;;;;;;;;;5111881;28;20104;-40
2022/11/25 14:42:24;;;;;;;6.47;2.08;;;;;;;;;;5111973;28;20024;-40
2022/11/25 14:44:54;;;;;;;3.13;1.83;;;;;;;;;;5111788;28;20024;-40
2022/11/25 14:47:24;;;;;;;2.10;1.75;;;;;;;;;;5111814;28;20026;-40
2022/11/25 14:49:51;;;;;;;3.47;2.40;;;;;;;;;;5111727;28;20027;-40
2022/11/25 14:52:23;;;;;;;3.72;2.10;;;;;;;;;;5111549;28;20485;-40
2022/11/25 14:54:49;;;;;;;3.08;2.08;;;;;;;;;;5111603;28;20028;-40
2022/11/25 14:57:18;;;;;;;5.22;2.17;;;;;;;;;;5111662;28;20103;-40
2022/11/25 14:59:44;;;;;;;3.67;2.05;;;;;;;;;;5111575;28;20019;-40
2022/11/25 15:02:24;;;;;;;2.78;1.80;;;;;;;;;;5111457;28;20045;-40
2022/11/25 15:04:51;;;;;;;3.45;1.60;;;;;;;;;;5111286;28;20053;-40
2022/11/25 15:07:21;;;;;;;3.45;1.75;;;;;;;;;;5111475;28;20088;-40
2022/11/25 15:09:47;;;;;;;2.53;1.60;;;;;;;;;;5111456;28;20036;-40
2022/11/25 15:12:15;;;;;;;2.75;1.73;;;;;;;;;;5111299;28;20107;-39
2022/11/25 15:14:43;;;;;;;3.33;2.20;;;;;;;;;;5111044;28;20375;-40
2022/11/25 15:17:22;;;;;;;5.00;2.80;;;;;;;;;;5111524;28;20068;-39
2022/11/25 15:19:48;;;;;;;5.43;3.28;;;;;;;;;;5111228;28;20110;-40
2022/11/25 15:22:15;;;;;;;5.45;3.35;;;;;;;;;;5111045;28;20019;-40
2022/11/25 15:24:44;;;;;;;5.22;3.17;;;;;;;;;;5111067;28;20394;-40
2022/11/25 15:27:13;;;;;;;6.40;3.42;;;;;;;;;;5111001;28;20153;-40
2022/11/25 15:29:40;;;;;;;5.78;3.15;;;;;;;;;;5110925;28;20398;-39
2022/11/25 15:32:09;;;;;;;5.15;3.25;;;;;;;;;;5111399;28;20030;-40
2022/11/25 15:34:35;;;;;;;5.97;3.65;;;;;;;;;;5111468;28;20024;-40
2022/11/25 15:37:02;;;;;;;7.53;4.07;;;;;;;;;;5110816;28;20103;-40
2022/11/25 15:39:29;;;;;;;7.15;3.45;;;;;;;;;;5111220;28;20019;-40
2022/11/25 15:42:14;;;;;;;6.90;3.33;;;;;;;;;;5110965;28;20098;-40
2022/11/25 15:44:44;;;;;;;5.88;3.72;;;;;;;;;;5109893;28;20038;-40
2022/11/25 15:47:24;;;;;;;4.40;2.70;;;;;;;;;;5105946;28;20051;-40
2022/11/25 15:50:10;;;;;;;4.78;2.90;;;;;;;;;;5101185;28;20416;-40
2022/11/25 15:52:39;;;;;;;5.35;3.10;;;;;;;;;;5087782;28;20054;-40
2022/11/25 15:55:18;;;;;;;5.43;2.80;;;;;;;;;;5110212;28;20405;-40
2022/11/25 15:57:48;;;;;;;3.95;2.33;;;;;;;;;;5108259;28;20095;-40
2022/11/25 16:00:19;;;;;;;4.97;2.83;;;;;;;;;;5106281;28;20032;-39
2022/11/25 16:02:45;;;;;;;4.38;2.40;;;;;;;;;;5098331;28;20367;-40
2022/11/25 16:05:14;;;;;;;4.55;2.20;;;;;;;;;;5100746;28;20127;-39
2022/11/25 16:07:56;;;;;;;3.65;2.25;;;;;;;;;;5089942;28;20016;-39
2022/11/25 16:10:28;;;;;;;4.30;2.05;;;;;;;;;;5089460;28;20032;-40
2022/11/25 16:13:13;;;;;;;3.70;2.13;;;;;;;;;;5089362;28;20103;-40
2022/11/25 16:15:53;;;;;;;4.45;2.22;;;;;;;;;;5089245;28;20023;-40
2022/11/25 16:18:22;;;;;;;5.82;2.63;;;;;;;;;;5088708;28;20044;-40
2022/11/25 16:20:55;;;;;;;4.60;2.30;;;;;;;;;;5089636;28;20027;-40
2022/11/25 16:23:22;;;;;;;3.50;2.08;;;;;;;;;;5089681;28;20032;-40
2022/11/25 16:25:55;;;;;;;4.68;2.20;;;;;;;;;;5108704;28;20408;-40
2022/11/25 16:28:22;;;;;;;4.07;2.00;;;;;;;;;;5101040;28;20031;-39
2022/11/25 16:30:48;;;;;;;4.05;1.88;;;;;;;;;;5108127;28;20106;-39
2022/11/25 16:33:14;;;;;;;3.38;1.98;;;;;;;;;;5101812;28;20028;-40
2022/11/25 16:35:40;;;;;;;4.05;2.08;;;;;;;;;;5090074;28;20016;-40
2022/11/25 16:38:09;;;;;;;3.53;2.35;;;;;;;;;;5090184;28;20521;-40
2022/11/25 16:40:36;;;;;;;3.30;1.73;;;;;;;;;;5091892;28;20534;-40
2022/11/25 16:43:03;;;;;;;2.13;1.40;;;;;;;;;;5099030;28;20034;-40
2022/11/25 16:45:29;;;;;;;3.50;1.80;;;;;;;;;;5098197;28;20055;-40
2022/11/25 16:47:55;;;;;;;2.63;1.70;;;;;;;;;;5101223;28;20066;-40
2022/11/25 16:50:21;;;;;;;4.50;2.05;;;;;;;;;;5101821;28;20032;-40
2022/11/25 16:52:48;;;;;;;3.92;2.10;;;;;;;;;;5098637;28;20437;-40
2022/11/25 16:55:17;;;;;;;4.18;1.92;;;;;;;;;;5100991;28;20028;-40
2022/11/25 16:57:43;;;;;;;3.60;1.98;;;;;;;;;;5100623;28;20035;-40
2022/11/25 17:00:15;;;;;;;4.32;2.03;;;;;;;;;;5102306;28;20028;-40
2022/11/25 17:02:41;;;;;;;2.63;1.73;;;;;;;;;;5097825;28;20020;-40
2022/11/25 17:05:16;;;;;;;5.63;2.15;;;;;;;;;;5100659;28;20038;-40
2022/11/25 17:07:42;;;;;;;4.25;2.10;;;;;;;;;;5099323;28;20050;-40
2022/11/25 17:10:08;;;;;;;3.85;2.17;;;;;;;;;;5101324;28;20024;-40
2022/11/25 17:12:35;;;;;;;3.97;2.22;;;;;;;;;;5090095;28;20502;-40
2022/11/25 17:15:03;;;;;;;3.83;2.38;;;;;;;;;;5100768;28;20023;-39
2022/11/25 17:17:29;;;;;;;4.68;2.50;;;;;;;;;;5099527;28;20073;-40
2022/11/25 17:19:55;;;;;;;5.32;2.60;;;;;;;;;;5100241;28;20036;-40
2022/11/25 17:22:22;;;;;;;4.03;2.50;;;;;;;;;;5106816;28;20148;-40
2022/11/25 17:24:48;;;;;;;7.35;3.15;;;;;;;;;;5107503;28;20552;-40
2022/11/25 17:27:21;;;;;;;4.30;2.97;;;;;;;;;;5108677;28;20410;-40
2022/11/25 17:29:48;;;;;;;4.93;2.75;;;;;;;;;;5108031;28;20597;-39
2022/11/25 17:32:14;;;;;;;6.93;3.25;;;;;;;;;;5107982;28;20538;-40
2022/11/25 17:34:40;;;;;;;6.10;3.58;;;;;;;;;;5103469;28;20028;-40
2022/11/25 17:37:12;;;;;;;5.75;3.28;;;;;;;;;;5105498;28;20024;-40
2022/11/25 17:39:38;;;;;;;6.35;3.03;;;;;;;;;;5107965;28;20034;-40
2022/11/25 17:42:04;;;;;;;4.35;3.08;;;;;;;;;;5095827;28;20020;-40
2022/11/25 17:44:31;;;;;;;5.10;2.80;;;;;;;;;;5107932;28;20103;-40
2022/11/25 17:46:58;;;;;;;5.80;3.30;;;;;;;;;;5105695;28;20100;-40
2022/11/25 17:49:24;;;;;;;5.20;3.10;;;;;;;;;;5089608;28;20035;-39
2022/11/25 17:51:51;;;;;;;5.32;3.55;;;;;;;;;;5102581;28;20028;-40
2022/11/25 17:54:17;;;;;;;8.43;4.15;;;;;;;;;;5093970;28;20031;-40
2022/11/25 17:56:44;;;;;;;8.88;4.40;;;;;;;;;;5098078;28;20043;-40
2022/11/25 17:59:17;;;;;;;7.57;4.63;;;;;;;;;;5107334;28;20552;-40
2022/11/25 18:01:43;;;;;;;7.57;4.83;;;;;;;;;;5108083;28;20058;-40
2022/11/25 18:04:13;;;;;;;7.68;4.78;;;;;;;;;;5088911;28;20273;-40
2022/11/25 18:06:40;;;;;;;8.40;4.80;;;;;;;;;;5081526;28;20032;-40
2022/11/25 18:09:06;;;;;;;8.07;4.88;;;;;;;;;;5108416;28;20027;-40
2022/11/25 18:11:32;;;;;;;7.97;4.13;;;;;;;;;;5100438;28;20024;-40
2022/11/25 18:13:58;;;;;;;6.35;4.13;;;;;;;;;;5095873;28;20027;-40
2022/11/25 18:16:24;;;;;;;7.07;4.00;;;;;;;;;;5097902;28;20494;-40
2022/11/25 18:18:50;;;;;;;6.55;4.03;;;;;;;;;;5110491;28;20107;-40
2022/11/25 18:21:16;;;;;;;8.85;5.07;;;;;;;;;;5097925;28;20077;-40
2022/11/25 18:23:42;;;;;;;7.65;5.00;;;;;;;;;;5092398;28;20352;-40
2022/11/25 18:26:10;;;;;;;6.40;4.57;;;;;;;;;;5099679;28;20032;-40
2022/11/25 18:28:36;;;;;;;7.65;4.13;;;;;;;;;;5092593;28;20020;-40
2022/11/25 18:31:03;;;;;;;6.55;3.88;;;;;;;;;;5105948;28;20379;-40
2022/11/25 18:33:29;;;;;;;8.95;4.25;;;;;;;;;;5095952;28;20028;-40
2022/11/25 18:35:55;;;;;;;6.88;3.78;;;;;;;;;;5091956;28;20028;-40
2022/11/25 18:38:21;;;;;;;4.93;3.72;;;;;;;;;;5098187;28;20030;-40
2022/11/25 18:40:47;;;;;;;6.13;3.90;;;;;;;;;;5105532;28;20404;-40
2022/11/25 18:43:18;;;;;;;6.43;4.25;;;;;;;;;;5100168;28;20524;-40
2022/11/25 18:45:44;;;;;;;5.47;3.35;;;;;;;;;;5092718;28;20455;-40
2022/11/25 18:48:17;;;;;;;4.93;3.00;;;;;;;;;;5095777;28;20062;-40
2022/11/25 18:50:44;;;;;;;3.88;2.85;;;;;;;;;;5103998;28;20024;-40
2022/11/25 18:53:11;;;;;;;4.25;2.90;;;;;;;;;;5105396;28;20034;-40
2022/11/25 18:55:37;;;;;;;6.60;3.20;;;;;;;;;;5084659;28;20110;-40
2022/11/25 18:58:04;;;;;;;5.15;2.58;;;;;;;;;;5097080;28;20051;-40
2022/11/25 19:00:30;;;;;;;6.07;3.22;;;;;;;;;;5093775;28;20438;-40
2022/11/25 19:02:57;;;;;;;5.65;2.90;;;;;;;;;;5097216;28;20027;-40
2022/11/25 19:05:28;;;;;;;5.43;3.33;;;;;;;;;;5083290;28;20028;-40
2022/11/25 19:07:55;;;;;;;6.57;3.17;;;;;;;;;;5102837;28;20024;-40
2022/11/25 19:10:23;;;;;;;4.40;3.00;;;;;;;;;;5095755;28;20553;-40
2022/11/25 19:12:50;;;;;;;4.93;2.80;;;;;;;;;;5101175;28;20028;-40
2022/11/25 19:15:18;;;;;;;6.65;2.80;;;;;;;;;;5094607;28;20032;-40
2022/11/25 19:17:46;;;;;;;5.70;3.10;;;;;;;;;;5081479;28;20019;-40
2022/11/25 19:20:13;;;;;;;6.03;2.88;;;;;;;;;;5099292;28;20063;-40
2022/11/25 19:22:39;;;;;;;4.75;2.47;;;;;;;;;;5102307;28;20015;-40
2022/11/25 19:25:05;;;;;;;4.22;2.47;;;;;;;;;;5100340;28;20039;-40
2022/11/25 19:27:32;;;;;;;3.20;2.20;;;;;;;;;;5096727;28;20470;-40
2022/11/25 19:29:58;;;;;;;4.00;2.30;;;;;;;;;;5098348;28;20028;-40
2022/11/25 19:32:28;;;;;;;5.13;2.50;;;;;;;;;;5096672;28;20028;-40
2022/11/25 19:34:58;;;;;;;5.55;2.88;;;;;;;;;;5077278;28;20065;-40
2022/11/25 19:37:26;;;;;;;4.32;2.05;;;;;;;;;;5100715;28;20024;-40
2022/11/25 19:39:52;;;;;;;5.35;2.15;;;;;;;;;;5104649;28;20019;-40
2022/11/25 19:42:18;;;;;;;5.25;2.63;;;;;;;;;;5102567;28;20036;-40
2022/11/25 19:44:45;;;;;;;4.95;2.70;;;;;;;;;;5090183;28;20491;-40
2022/11/25 19:47:17;;;;;;;4.40;2.50;;;;;;;;;;5088863;28;20437;-40
2022/11/25 19:49:43;;;;;;;5.53;2.22;;;;;;;;;;5103921;28;20126;-40
2022/11/25 19:52:16;;;;;;;4.22;1.83;;;;;;;;;;5105615;28;20402;-40
2022/11/25 19:54:42;;;;;;;4.53;1.92;;;;;;;;;;5102048;28;20554;-39
2022/11/25 19:57:15;;;;;;;3.05;1.90;;;;;;;;;;5091170;28;20029;-40
2022/11/25 19:59:42;;;;;;;4.55;2.67;;;;;;;;;;5088901;28;20030;-40
2022/11/25 20:02:15;;;;;;;3.80;2.20;;;;;;;;;;5104375;28;20402;-40
2022/11/25 20:04:43;;;;;;;5.73;2.60;;;;;;;;;;5099906;28;20501;-40
2022/11/25 20:07:10;;;;;;;4.70;2.30;;;;;;;;;;5109251;28;20122;-40
2022/11/25 20:09:36;;;;;;;3.85;2.50;;;;;;;;;;5086614;28;20027;-40
2022/11/25 20:12:13;;;;;;;6.68;2.60;;;;;;;;;;5089216;28;20024;-40